createdAt,value
2023-03-04T00:03:00.709Z,21.58
2023-03-04T00:07:00.903Z,21.58
2023-03-04T00:11:01.133Z,21.58
2023-03-04T00:15:01.263Z,21.58
2023-03-04T00:19:01.440Z,21.58
2023-03-04T00:23:01.636Z,21.57
2023-03-04T00:27:01.825Z,21.57
2023-03-04T00:31:02.018Z,21.56
2023-03-04T00:35:02.195Z,21.56
2023-03-04T00:39:02.521Z,21.56
2023-03-04T00:43:02.551Z,21.55
2023-03-04T00:47:02.759Z,21.55
2023-03-04T00:51:02.963Z,21.54
2023-03-04T00:55:03.133Z,21.53
2023-03-04T00:59:03.365Z,21.53
2023-03-04T01:03:03.561Z,21.54
2023-03-04T01:07:03.711Z,21.53
2023-03-04T01:11:03.935Z,21.53
2023-03-04T01:15:04.132Z,21.52
2023-03-04T01:19:04.297Z,21.52
2023-03-04T01:23:04.499Z,21.52
2023-03-04T01:27:04.681Z,21.52
2023-03-04T01:31:05.014Z,21.51
2023-03-04T01:35:05.137Z,21.51
2023-03-04T01:39:05.339Z,21.51
2023-03-04T01:43:05.498Z,21.50
2023-03-04T01:47:05.701Z,21.50
2023-03-04T01:51:05.923Z,21.50
2023-03-04T01:55:06.104Z,21.50
2023-03-04T01:59:06.323Z,21.49
2023-03-04T02:03:06.528Z,21.49
2023-03-04T02:07:06.719Z,21.49
2023-03-04T02:11:06.881Z,21.49
2023-03-04T02:15:07.097Z,21.48
2023-03-04T02:19:07.290Z,21.48
2023-03-04T02:23:07.504Z,21.47
2023-03-04T02:27:07.714Z,21.47
2023-03-04T02:31:07.932Z,21.47
2023-03-04T02:35:08.153Z,21.46
2023-03-04T02:39:08.349Z,21.46
2023-03-04T02:43:08.565Z,21.47
2023-03-04T02:47:08.756Z,21.46
2023-03-04T02:51:08.982Z,21.46
2023-03-04T02:55:09.210Z,21.46
2023-03-04T02:59:09.196Z,21.46
2023-03-04T03:03:09.424Z,21.45
2023-03-04T03:07:09.094Z,21.46
2023-03-04T03:11:09.049Z,21.46
2023-03-04T03:15:09.050Z,21.46
2023-03-04T03:19:08.979Z,21.45
2023-03-04T03:23:08.971Z,21.45
2023-03-04T03:27:08.897Z,21.45
2023-03-04T03:31:08.911Z,21.45
2023-03-04T03:35:08.850Z,21.44
2023-03-04T03:39:08.981Z,21.43
2023-03-04T03:43:09.129Z,21.44
2023-03-04T03:47:09.347Z,21.43
2023-03-04T03:51:09.581Z,21.43
2023-03-04T03:55:09.758Z,21.43
2023-03-04T03:59:10.000Z,21.42
2023-03-04T04:03:10.240Z,21.43
2023-03-04T04:07:10.422Z,21.42
2023-03-04T04:11:10.654Z,21.41
2023-03-04T04:15:11.301Z,21.41
2023-03-04T04:19:11.052Z,21.39
2023-03-04T04:23:11.283Z,21.39
2023-03-04T04:27:11.481Z,21.39
2023-03-04T04:31:11.736Z,21.39
2023-03-04T04:35:11.878Z,21.39
2023-03-04T04:39:12.115Z,21.39
2023-03-04T04:43:12.310Z,21.39
2023-03-04T04:47:12.524Z,21.38
2023-03-04T04:51:12.718Z,21.38
2023-03-04T04:55:12.976Z,21.38
2023-03-04T04:59:13.161Z,21.38
2023-03-04T05:03:13.372Z,21.37
2023-03-04T05:07:13.580Z,21.37
2023-03-04T05:11:13.764Z,21.37
2023-03-04T05:15:13.984Z,21.36
2023-03-04T05:19:14.197Z,21.36
2023-03-04T05:23:14.407Z,21.35
2023-03-04T05:27:14.622Z,21.36
2023-03-04T05:31:14.906Z,21.35
2023-03-04T05:35:15.034Z,21.35
2023-03-04T05:39:15.242Z,21.35
2023-03-04T05:43:15.467Z,21.34
2023-03-04T05:47:15.694Z,21.35
2023-03-04T05:51:15.934Z,21.34
2023-03-04T05:55:15.900Z,21.33
2023-03-04T05:59:15.868Z,21.33
2023-03-04T06:03:15.805Z,21.34
2023-03-04T06:07:15.754Z,21.33
2023-03-04T06:11:15.716Z,21.33
2023-03-04T06:15:15.718Z,21.33
2023-03-04T06:19:15.656Z,21.34
2023-03-04T06:23:15.601Z,21.33
2023-03-04T06:27:15.590Z,21.33
2023-03-04T06:31:15.630Z,21.34
2023-03-04T06:35:15.729Z,21.34
2023-03-04T06:39:15.676Z,21.34
2023-03-04T06:43:15.652Z,21.33
2023-03-04T06:47:15.604Z,21.34
2023-03-04T06:51:15.602Z,21.34
2023-03-04T06:55:15.559Z,21.35
2023-03-04T06:59:15.510Z,21.35
2023-03-04T07:03:15.472Z,21.35
2023-03-04T07:07:15.445Z,21.35
2023-03-04T07:11:15.396Z,21.35
2023-03-04T07:15:15.369Z,21.35
2023-03-04T07:19:15.456Z,21.36
2023-03-04T07:23:15.710Z,21.36
2023-03-04T07:27:15.645Z,21.36
2023-03-04T07:31:15.679Z,21.37
2023-03-04T07:35:15.597Z,21.37
2023-03-04T07:39:15.548Z,21.37
2023-03-04T07:43:15.503Z,21.37
2023-03-04T07:47:15.476Z,21.38
2023-03-04T07:51:15.458Z,21.38
2023-03-04T07:55:15.372Z,21.38
2023-03-04T07:59:15.365Z,21.38
2023-03-04T08:03:15.340Z,21.39
2023-03-04T08:07:15.512Z,21.40
2023-03-04T08:11:15.467Z,21.39
2023-03-04T08:15:15.414Z,21.40
2023-03-04T08:19:15.417Z,21.40
2023-03-04T08:23:15.352Z,21.40
2023-03-04T08:27:16.289Z,21.41
2023-03-04T08:31:15.350Z,21.41
2023-03-04T08:35:15.220Z,21.41
2023-03-04T08:39:15.185Z,21.43
2023-03-04T08:43:15.128Z,21.42
2023-03-04T08:47:15.142Z,21.42
2023-03-04T08:51:15.314Z,21.43
2023-03-04T08:55:15.300Z,21.43
2023-03-04T08:59:15.243Z,21.43
2023-03-04T09:03:15.257Z,21.44
2023-03-04T09:07:15.157Z,21.45
2023-03-04T09:11:15.119Z,21.45
2023-03-04T09:15:15.079Z,21.45
2023-03-04T09:19:15.034Z,21.46
2023-03-04T09:23:15.087Z,21.46
2023-03-04T09:27:14.984Z,21.46
2023-03-04T09:31:15.024Z,21.46
2023-03-04T09:35:14.958Z,21.46
2023-03-04T09:39:14.892Z,21.47
2023-03-04T09:43:14.856Z,21.46
2023-03-04T09:47:14.865Z,21.48
2023-03-04T09:51:14.786Z,21.48
2023-03-04T09:55:14.774Z,21.48
2023-03-04T09:59:14.734Z,21.48
2023-03-04T10:03:14.711Z,21.49
2023-03-04T10:07:14.653Z,21.49
2023-03-04T10:11:14.604Z,21.50
2023-03-04T10:15:14.788Z,21.50
2023-03-04T10:19:14.759Z,21.51
2023-03-04T10:23:14.734Z,21.51
2023-03-04T10:27:14.721Z,21.51
2023-03-04T10:31:14.686Z,21.52
2023-03-04T10:35:14.624Z,21.52
2023-03-04T10:39:14.572Z,21.52
2023-03-04T10:43:14.528Z,21.53
2023-03-04T10:47:14.500Z,21.53
2023-03-04T10:51:14.485Z,21.53
2023-03-04T10:55:14.381Z,21.55
2023-03-04T10:59:14.538Z,21.54
2023-03-04T11:03:14.743Z,21.55
2023-03-04T11:07:15.012Z,21.55
2023-03-04T11:11:15.202Z,21.57
2023-03-04T11:15:15.375Z,21.56
2023-03-04T11:19:15.349Z,21.57
2023-03-04T11:23:15.306Z,21.57
2023-03-04T11:27:15.285Z,21.58
2023-03-04T11:31:15.201Z,21.58
2023-03-04T11:35:15.182Z,21.58
2023-03-04T11:39:15.183Z,21.60
2023-03-04T11:43:15.154Z,21.61
2023-03-04T11:47:15.098Z,21.61
2023-03-04T11:51:15.089Z,21.61
2023-03-04T11:55:15.042Z,21.63
2023-03-04T11:59:15.001Z,21.64
2023-03-04T12:03:15.175Z,21.65
2023-03-04T12:07:15.346Z,21.67
2023-03-04T12:11:15.999Z,21.68
2023-03-04T12:15:16.296Z,21.69
2023-03-04T12:19:16.255Z,21.71
2023-03-04T12:23:16.259Z,21.72
2023-03-04T12:27:16.219Z,21.73
2023-03-04T12:31:18.933Z,21.76
2023-03-04T12:35:16.344Z,21.78
2023-03-04T12:39:16.288Z,21.81
2023-03-04T12:43:16.258Z,21.84
2023-03-04T12:47:16.208Z,21.86
2023-03-04T12:51:16.177Z,21.89
2023-03-04T12:55:16.122Z,21.93
2023-03-04T12:59:16.129Z,21.98
2023-03-04T13:03:16.128Z,22.03
2023-03-04T13:07:16.046Z,22.08
2023-03-04T13:11:15.960Z,22.14
2023-03-04T13:15:15.938Z,22.20
2023-03-04T13:19:15.894Z,22.26
2023-03-04T13:23:15.888Z,22.31
2023-03-04T13:27:15.831Z,22.37
2023-03-04T13:31:15.816Z,22.43
2023-03-04T13:35:15.733Z,22.51
2023-03-04T13:39:15.702Z,22.59
2023-03-04T13:43:15.678Z,22.71
2023-03-04T13:47:15.773Z,22.86
2023-03-04T13:51:28.613Z,23.10
2023-03-04T13:55:16.710Z,24.37
2023-03-04T13:59:15.688Z,28.08
2023-03-04T14:03:15.637Z,29.94
2023-03-04T14:07:15.704Z,30.92
2023-03-04T14:11:15.815Z,30.99
2023-03-04T14:15:16.009Z,28.29
2023-03-04T14:19:16.170Z,26.28
2023-03-04T14:23:16.261Z,25.11
2023-03-04T14:27:16.386Z,24.43
2023-03-04T14:31:16.533Z,24.03
2023-03-04T14:35:16.677Z,23.83
2023-03-04T14:39:16.672Z,23.71
2023-03-04T14:43:16.593Z,23.68
2023-03-04T14:47:16.595Z,23.72
2023-03-04T14:51:16.530Z,23.86
2023-03-04T14:55:16.486Z,24.01
2023-03-04T14:59:16.450Z,24.10
2023-03-04T15:03:16.412Z,24.14
2023-03-04T15:07:16.402Z,24.09
2023-03-04T15:11:16.328Z,23.97
2023-03-04T15:15:16.307Z,23.87
2023-03-04T15:19:16.768Z,23.83
2023-03-04T15:23:16.407Z,23.81
2023-03-04T15:27:16.559Z,23.81
2023-03-04T15:31:16.733Z,23.82
2023-03-04T15:35:16.692Z,23.82
2023-03-04T15:39:16.869Z,23.82
2023-03-04T15:43:16.869Z,23.82
2023-03-04T15:47:16.869Z,23.83
2023-03-04T15:51:16.854Z,23.82
2023-03-04T15:55:17.022Z,23.81
2023-03-04T15:59:17.152Z,23.80
2023-03-04T16:03:17.175Z,23.75
2023-03-04T16:07:17.287Z,23.69
2023-03-04T16:11:17.384Z,23.61
2023-03-04T16:15:17.526Z,23.54
2023-03-04T16:19:17.746Z,23.46
2023-03-04T16:23:17.870Z,23.40
2023-03-04T16:27:18.100Z,23.32
2023-03-04T16:31:18.136Z,23.23
2023-03-04T16:35:18.235Z,23.16
2023-03-04T16:39:18.286Z,23.10
2023-03-04T16:43:18.409Z,23.03
2023-03-04T16:47:18.552Z,22.98
2023-03-04T16:51:18.696Z,22.92
2023-03-04T16:55:18.850Z,22.88
2023-03-04T16:59:19.029Z,22.83
2023-03-04T17:03:19.205Z,22.78
2023-03-04T17:07:19.397Z,22.75
2023-03-04T17:11:19.611Z,22.71
2023-03-04T17:15:19.837Z,22.67
2023-03-04T17:19:19.816Z,22.64
2023-03-04T17:23:19.741Z,22.60
2023-03-04T17:27:19.720Z,22.57
2023-03-04T17:31:19.775Z,22.55
2023-03-04T17:35:19.678Z,22.52
2023-03-04T17:39:19.643Z,22.49
2023-03-04T17:43:19.584Z,22.47
2023-03-04T17:47:19.515Z,22.44
2023-03-04T17:51:19.488Z,22.42
2023-03-04T17:55:19.476Z,22.39
2023-03-04T17:59:19.468Z,22.37
2023-03-04T18:03:19.601Z,22.35
2023-03-04T18:07:19.723Z,22.34
2023-03-04T18:11:19.745Z,22.31
2023-03-04T18:15:19.873Z,22.29
2023-03-04T18:19:19.946Z,22.28
2023-03-04T18:23:19.988Z,22.26
2023-03-04T18:27:19.958Z,22.25
2023-03-04T18:31:19.997Z,22.23
2023-03-04T18:35:20.045Z,22.21
2023-03-04T18:39:19.929Z,22.20
2023-03-04T18:43:19.884Z,22.19
2023-03-04T18:47:19.835Z,22.17
2023-03-04T18:51:19.869Z,22.16
2023-03-04T18:55:19.849Z,22.15
2023-03-04T18:59:19.865Z,22.13
2023-03-04T19:03:19.849Z,22.12
2023-03-04T19:07:19.828Z,22.10
2023-03-04T19:11:19.880Z,22.09
2023-03-04T19:15:19.852Z,22.08
2023-03-04T19:19:19.888Z,22.07
2023-03-04T19:23:19.913Z,22.05
2023-03-04T19:27:19.926Z,22.04
2023-03-04T19:31:19.955Z,22.03
2023-03-04T19:35:20.053Z,22.02
2023-03-04T19:39:19.994Z,22.01
2023-03-04T19:43:20.058Z,22.00
2023-03-04T19:47:20.108Z,22.00
2023-03-04T19:51:20.134Z,21.99
2023-03-04T19:55:20.235Z,21.97
2023-03-04T19:59:20.252Z,21.96
2023-03-04T20:03:20.298Z,21.95
2023-03-04T20:07:20.384Z,21.95
2023-03-04T20:11:20.442Z,21.95
2023-03-04T20:15:20.476Z,21.93
2023-03-04T20:19:20.540Z,21.91
2023-03-04T20:23:20.591Z,21.91
2023-03-04T20:27:20.654Z,21.91
2023-03-04T20:31:20.773Z,21.90
2023-03-04T20:35:20.791Z,21.89
2023-03-04T20:39:29.029Z,21.87
2023-03-04T20:43:21.821Z,21.87
2023-03-04T20:47:20.775Z,21.87
2023-03-04T20:51:20.736Z,21.86
2023-03-04T20:55:20.746Z,21.85
2023-03-04T20:59:20.715Z,21.85
2023-03-04T21:03:20.787Z,21.84
2023-03-04T21:07:20.886Z,21.83
2023-03-04T21:11:20.953Z,21.83
2023-03-04T21:15:21.073Z,21.82
2023-03-04T21:19:21.201Z,21.81
2023-03-04T21:23:21.279Z,21.81
2023-03-04T21:27:21.381Z,21.80
2023-03-04T21:31:21.544Z,21.80
2023-03-04T21:35:21.664Z,21.80
2023-03-04T21:39:21.735Z,21.79
2023-03-04T21:43:21.852Z,21.79
2023-03-04T21:47:21.946Z,21.78
2023-03-04T21:51:22.055Z,21.77
2023-03-04T21:55:22.182Z,21.76
2023-03-04T21:59:22.329Z,21.76
2023-03-04T22:03:22.415Z,21.76
2023-03-04T22:07:22.589Z,21.74
2023-03-04T22:11:22.709Z,21.73
2023-03-04T22:15:22.884Z,21.73
2023-03-04T22:19:23.006Z,21.72
2023-03-04T22:23:23.183Z,21.72
2023-03-04T22:27:23.332Z,21.71
2023-03-04T22:31:23.437Z,21.70
2023-03-04T22:35:23.552Z,21.69
2023-03-04T22:39:23.690Z,21.69
2023-03-04T22:43:23.831Z,21.68
2023-03-04T22:47:23.986Z,21.68
2023-03-04T22:51:24.109Z,21.68
2023-03-04T22:55:24.277Z,21.68
2023-03-04T22:59:24.365Z,21.66
2023-03-04T23:03:24.531Z,21.66
2023-03-04T23:07:24.709Z,21.66
2023-03-04T23:11:24.819Z,21.65
2023-03-04T23:15:25.001Z,21.64
2023-03-04T23:19:25.124Z,21.64
2023-03-04T23:23:25.313Z,21.65
2023-03-04T23:27:25.423Z,21.64
2023-03-04T23:31:25.882Z,21.64
2023-03-04T23:35:25.794Z,21.62
2023-03-04T23:39:25.909Z,21.62
2023-03-04T23:43:26.075Z,21.61
2023-03-04T23:47:26.224Z,21.61
2023-03-04T23:51:26.377Z,21.61
2023-03-04T23:55:26.582Z,21.60
2023-03-04T23:59:26.810Z,21.59
